Time;durP1;ratioP1;P1;durP2;ratioP2;P2;SDS_P1;SDS_P2;PMS_P1;PMS_P2;Temp;Humidity;BMP_temperature;BMP_pressure;BME280_temperature;BME280_humidity;BME280_pressure;Samples;Min_cycle;Max_cycle;Signal;HPM_P1;HPM_P2
2023/05/09 00:01:38;;;;;;;15.30;10.20;;;;;;;15.87;100.00;100045.53;12218045;19;20007;-81
2023/05/09 00:05:40;;;;;;;14.68;8.80;;;;;;;15.87;100.00;100046.38;12217421;19;20011;-83
2023/05/09 00:09:42;;;;;;;12.02;8.55;;;;;;;15.85;100.00;100045.81;12197870;19;20522;-83
2023/05/09 00:13:44;;;;;;;16.10;9.20;;;;;;;15.80;100.00;100051.41;12212551;19;20379;-82
2023/05/09 00:17:46;;;;;;;16.60;8.83;;;;;;;15.79;100.00;100044.16;12211666;19;20006;-82
2023/05/09 00:21:48;;;;;;;20.88;9.52;;;;;;;15.77;100.00;100040.00;12187239;19;20357;-81
2023/05/09 00:25:50;;;;;;;15.18;9.88;;;;;;;15.75;100.00;100031.13;12210430;19;20050;-83
2023/05/09 00:29:53;;;;;;;15.43;8.93;;;;;;;15.73;100.00;100036.94;12215044;19;20003;-82
2023/05/09 00:33:54;;;;;;;14.07;8.97;;;;;;;15.72;100.00;100026.94;12187064;19;20006;-81
2023/05/09 00:37:56;;;;;;;13.27;8.73;;;;;;;15.72;100.00;100035.28;12213290;19;20412;-82
2023/05/09 00:41:58;;;;;;;14.48;8.57;;;;;;;15.70;100.00;100020.81;12210515;19;20042;-82
2023/05/09 00:46:00;;;;;;;15.13;10.43;;;;;;;15.69;100.00;100013.59;12186348;19;20006;-82
2023/05/09 00:50:02;;;;;;;13.13;8.63;;;;;;;15.68;100.00;100017.50;12209357;19;19999;-79
2023/05/09 00:54:04;;;;;;;15.30;8.68;;;;;;;15.66;100.00;100016.91;12210870;19;20015;-82
2023/05/09 00:58:10;;;;;;;13.35;9.95;;;;;;;15.66;100.00;100011.34;12187473;19;20018;-82
2023/05/09 01:02:12;;;;;;;12.75;9.05;;;;;;;15.63;100.00;100000.81;12207788;19;20019;-82
2023/05/09 01:06:38;;;;;;;17.23;9.60;;;;;;;15.56;100.00;100000.25;12208313;19;20010;-82
2023/05/09 01:10:53;;;;;;;13.75;9.48;;;;;;;15.46;100.00;99988.03;12186721;19;20624;-81
2023/05/09 01:15:43;;;;;;;17.13;9.25;;;;;;;15.33;100.00;99983.03;12210620;19;20435;-79
2023/05/09 01:20:13;;;;;;;16.30;10.20;;;;;;;15.24;100.00;99996.63;12189435;19;20022;-82
2023/05/09 01:24:29;;;;;;;13.48;9.38;;;;;;;15.22;100.00;99986.91;12210910;19;20017;-80
2023/05/09 01:28:55;;;;;;;13.82;9.90;;;;;;;15.26;100.00;99993.59;12186080;19;20048;-81
2023/05/09 01:33:03;;;;;;;14.35;9.43;;;;;;;15.28;100.00;99983.84;12205582;19;20011;-82
2023/05/09 01:37:08;;;;;;;14.25;9.52;;;;;;;15.30;100.00;99980.81;12187870;19;20007;-81
2023/05/09 01:41:12;;;;;;;17.10;9.82;;;;;;;15.32;100.00;99977.75;12205063;19;20095;-82
2023/05/09 01:45:14;;;;;;;14.98;10.15;;;;;;;15.28;100.00;99975.53;12205884;19;20011;-81
2023/05/09 01:49:19;;;;;;;15.80;10.18;;;;;;;15.24;100.00;99970.81;12185509;19;20080;-82
2023/05/09 01:53:23;;;;;;;21.67;11.07;;;;;;;15.17;100.00;99951.66;12202245;19;20007;-81
2023/05/09 01:57:26;;;;;;;30.70;14.60;;;;;;;15.11;100.00;99950.00;12191821;19;20007;-82
2023/05/09 02:01:29;;;;;;;20.05;10.27;;;;;;;15.00;100.00;99954.69;12217431;19;20098;-81
2023/05/09 02:05:32;;;;;;;16.52;10.25;;;;;;;14.86;100.00;99949.97;12219455;19;20013;-82
2023/05/09 02:09:33;;;;;;;;;;;;;;;14.70;100.00;99955.47;12197029;19;20086;-82
2023/05/09 02:13:37;;;;;;;21.27;11.23;;;;;;;14.61;100.00;99961.84;12217392;19;20030;-82
2023/05/09 02:17:38;;;;;;;20.17;12.15;;;;;;;14.50;100.00;99953.44;12216810;19;20038;-83
2023/05/09 02:21:40;;;;;;;19.77;11.52;;;;;;;14.45;100.00;99953.41;12197934;19;20079;-82
2023/05/09 02:25:45;;;;;;;19.27;12.60;;;;;;;14.42;100.00;99948.41;12215585;19;20014;-81
2023/05/09 02:29:50;;;;;;;19.33;11.70;;;;;;;14.40;100.00;99949.81;12208340;19;20394;-79
2023/05/09 02:33:53;;;;;;;25.25;12.90;;;;;;;14.35;100.00;99942.31;12193372;19;20011;-80
2023/05/09 02:37:58;;;;;;;21.38;12.73;;;;;;;14.25;100.00;99932.03;12218328;19;20038;-83
2023/05/09 02:42:05;;;;;;;20.67;13.30;;;;;;;14.17;100.00;99937.25;12211040;19;20006;-82
2023/05/09 02:46:09;;;;;;;20.08;12.35;;;;;;;14.07;100.00;99936.09;12189873;19;20007;-82
2023/05/09 02:50:11;;;;;;;19.63;12.70;;;;;;;14.00;100.00;99935.50;12212943;19;20011;-82
2023/05/09 02:54:13;;;;;;;22.45;13.45;;;;;;;13.91;100.00;99931.56;12214276;19;20027;-82
2023/05/09 02:58:14;;;;;;;22.88;13.95;;;;;;;13.82;100.00;99928.47;12194952;19;20030;-83
2023/05/09 03:02:18;;;;;;;27.25;15.88;;;;;;;13.76;100.00;99931.50;12213831;19;20006;-82
2023/05/09 03:06:20;;;;;;;24.90;14.02;;;;;;;13.70;100.00;99929.78;12196022;19;20010;-83
2023/05/09 03:10:22;;;;;;;23.58;14.40;;;;;;;13.64;100.00;99937.22;12216618;19;20030;-82
2023/05/09 03:14:24;;;;;;;22.60;14.13;;;;;;;13.58;100.00;99933.59;12211314;19;20506;-80
2023/05/09 03:18:25;;;;;;;26.25;14.07;;;;;;;13.55;100.00;99922.22;12193970;19;20461;-80
2023/05/09 03:22:28;;;;;;;33.47;15.05;;;;;;;13.52;100.00;99914.44;12213655;19;20007;-80
2023/05/09 03:26:35;;;;;;;25.05;15.25;;;;;;;13.48;100.00;99908.63;12214031;19;20102;-80
2023/05/09 03:30:36;;;;;;;25.30;15.27;;;;;;;13.45;100.00;99906.38;12193949;19;20006;-81
2023/05/09 03:34:42;;;;;;;26.60;16.20;;;;;;;13.41;100.00;99910.78;12212151;19;20007;-79
2023/05/09 03:38:44;;;;;;;28.00;15.53;;;;;;;13.38;100.00;99897.47;12215847;19;20027;-81
2023/05/09 03:42:47;;;;;;;27.00;15.98;;;;;;;13.34;100.00;99897.16;12192084;19;20021;-82
2023/05/09 03:46:49;;;;;;;30.27;15.82;;;;;;;13.31;100.00;99903.25;12211102;19;20014;-80
2023/05/09 03:50:51;;;;;;;26.80;16.08;;;;;;;13.29;100.00;99901.84;12212662;19;20007;-80
2023/05/09 03:54:54;;;;;;;24.80;15.77;;;;;;;13.29;100.00;99904.59;12190904;19;20002;-82
2023/05/09 03:58:56;;;;;;;31.45;16.80;;;;;;;13.27;100.00;99892.97;12213055;19;20007;-82
2023/05/09 04:02:59;;;;;;;26.75;16.02;;;;;;;13.24;100.00;99897.06;12209978;19;20047;-82
2023/05/09 04:07:07;;;;;;;25.00;15.13;;;;;;;13.24;100.00;99908.16;12211787;19;20054;-82
2023/05/09 04:11:10;;;;;;;26.42;16.88;;;;;;;13.23;100.00;99915.59;12225048;19;20014;-81
2023/05/09 04:15:15;;;;;;;31.33;16.30;;;;;;;13.24;100.00;99916.44;12225415;19;20419;-83
2023/05/09 04:19:17;;;;;;;24.48;14.45;;;;;;;13.25;100.00;99907.06;12199717;19;20018;-80
2023/05/09 04:23:19;;;;;;;28.08;16.25;;;;;;;13.30;100.00;99903.53;12216531;19;20010;-81
2023/05/09 04:27:22;;;;;;;31.13;17.33;;;;;;;13.39;100.00;99901.91;12193631;19;20010;-82
2023/05/09 04:31:26;;;;;;;29.02;16.65;;;;;;;13.54;100.00;99898.41;12211582;19;20038;-83
2023/05/09 04:35:29;;;;;;;27.45;15.18;;;;;;;13.72;100.00;99905.44;12214427;19;20018;-81
2023/05/09 04:39:31;;;;;;;27.83;15.15;;;;;;;13.83;100.00;99901.59;12194271;19;20017;-80
2023/05/09 04:43:40;;;;;;;28.40;16.55;;;;;;;13.96;100.00;99892.00;12211951;19;20487;-81
2023/05/09 04:47:42;;;;;;;26.23;14.93;;;;;;;14.07;100.00;99897.31;12211076;19;20006;-82
2023/05/09 04:51:44;;;;;;;57.07;16.77;;;;;;;14.17;100.00;99896.50;12190735;19;20416;-80
2023/05/09 04:55:45;;;;;;;27.90;15.85;;;;;;;14.30;100.00;99895.97;12214729;19;20006;-82
2023/05/09 04:59:48;;;;;;;23.52;15.15;;;;;;;14.41;100.00;99894.09;12214448;19;20026;-82
2023/05/09 05:03:51;;;;;;;26.10;14.88;;;;;;;14.52;100.00;99879.19;12188529;19;20061;-82
2023/05/09 05:07:53;;;;;;;24.52;14.32;;;;;;;14.65;100.00;99880.56;12214474;19;20006;-84
2023/05/09 05:11:59;;;;;;;25.88;15.73;;;;;;;14.78;100.00;99873.66;12213730;19;20466;-83
2023/05/09 05:16:05;;;;;;;24.48;14.27;;;;;;;14.95;100.00;99874.22;12190516;19;20018;-84
2023/05/09 05:20:09;;;;;;;24.63;14.18;;;;;;;15.18;100.00;99883.09;12211959;19;20007;-81
2023/05/09 05:24:15;;;;;;;21.27;13.45;;;;;;;15.43;100.00;99876.69;12213148;19;20010;-82
2023/05/09 05:28:17;;;;;;;23.83;14.90;;;;;;;15.68;100.00;99881.41;12187437;19;20082;-82
2023/05/09 05:32:19;;;;;;;19.75;14.23;;;;;;;15.87;100.00;99879.66;12210508;19;20329;-83
2023/05/09 05:36:21;;;;;;;21.30;14.43;;;;;;;16.01;100.00;99881.84;12192562;19;20010;-83
2023/05/09 05:40:23;;;;;;;20.33;13.98;;;;;;;16.13;100.00;99868.44;12215321;19;20620;-83
2023/05/09 05:44:26;;;;;;;22.73;13.82;;;;;;;16.26;100.00;99870.59;12213640;19;20011;-84
2023/05/09 05:48:28;;;;;;;20.27;14.23;;;;;;;16.32;100.00;99872.22;12190346;19;20042;-82
2023/05/09 05:52:31;;;;;;;20.73;13.95;;;;;;;16.45;100.00;99870.78;12217966;19;20007;-83
2023/05/09 05:56:35;;;;;;;20.02;14.57;;;;;;;16.65;100.00;99867.00;12216267;19;20007;-81
2023/05/09 06:00:36;;;;;;;19.13;13.20;;;;;;;16.85;100.00;99866.06;12201018;19;20347;-82
2023/05/09 06:04:42;;;;;;;23.98;14.48;;;;;;;16.94;100.00;99860.72;12217981;19;20015;-82
2023/05/09 06:08:44;;;;;;;22.90;14.23;;;;;;;16.99;100.00;99855.13;12224192;19;20569;-83
2023/05/09 06:12:48;;;;;;;20.88;14.27;;;;;;;17.03;100.00;99850.59;12199003;19;20018;-82
2023/05/09 06:16:51;;;;;;;21.95;14.30;;;;;;;17.04;100.00;99853.13;12208912;19;20035;-83
2023/05/09 06:20:53;;;;;;;;;;;;;;;17.00;100.00;99851.19;12200090;19;20077;-83
2023/05/09 06:24:55;;;;;;;19.17;13.18;;;;;;;17.14;100.00;99843.84;12189200;19;19910;-84
2023/05/09 06:28:57;;;;;;;22.13;13.45;;;;;;;17.30;100.00;99833.38;12197923;19;20006;-84
2023/05/09 06:32:59;;;;;;;22.27;13.88;;;;;;;17.53;100.00;99828.97;12223636;19;20002;-83
2023/05/09 06:37:01;;;;;;;22.13;14.77;;;;;;;17.74;100.00;99833.16;12203377;19;20547;-83
2023/05/09 06:41:03;;;;;;;18.93;13.43;;;;;;;17.98;100.00;99832.34;12215292;19;20011;-82
2023/05/09 06:45:05;;;;;;;24.63;15.35;;;;;;;18.05;100.00;99827.22;12219805;19;20385;-82
2023/05/09 06:49:07;;;;;;;23.38;16.38;;;;;;;18.03;100.00;99826.72;12202697;19;20477;-83
2023/05/09 06:53:09;;;;;;;25.75;15.15;;;;;;;18.06;100.00;99822.50;12225890;19;20010;-83
2023/05/09 06:57:10;;;;;;;21.00;14.75;;;;;;;18.20;100.00;99815.03;12224468;19;20014;-83
2023/05/09 07:01:14;;;;;;;23.13;15.25;;;;;;;18.39;100.00;99820.63;12203198;19;20014;-83
2023/05/09 07:05:16;;;;;;;23.17;16.70;;;;;;;18.61;100.00;99811.63;12225671;19;20006;-83
2023/05/09 07:09:19;;;;;;;23.15;15.38;;;;;;;18.73;100.00;99808.38;12223177;19;20030;-84
2023/05/09 07:13:21;;;;;;;23.47;14.87;;;;;;;18.91;100.00;99799.16;12220517;19;20011;-82
2023/05/09 07:17:23;;;;;;;24.95;16.83;;;;;;;19.06;100.00;99798.06;12222468;19;20502;-85
2023/05/09 07:21:25;;;;;;;25.02;14.70;;;;;;;19.16;100.00;99791.50;12200742;19;20014;-83
2023/05/09 07:25:27;;;;;;;22.00;13.63;;;;;;;19.26;100.00;99789.31;12223422;19;20368;-83
2023/05/09 07:29:29;;;;;;;23.80;14.52;;;;;;;19.42;100.00;99780.63;12223658;19;20466;-83
2023/05/09 07:33:32;;;;;;;19.53;14.43;;;;;;;19.40;100.00;99780.13;12197098;19;20014;-83
2023/05/09 07:37:34;;;;;;;24.27;15.02;;;;;;;19.43;100.00;99771.97;12222069;19;20010;-82
2023/05/09 07:41:36;;;;;;;22.45;14.27;;;;;;;19.39;100.00;99764.50;12224079;19;20010;-83
2023/05/09 07:45:37;;;;;;;19.60;14.30;;;;;;;19.51;100.00;99757.28;12203339;19;20042;-83
2023/05/09 07:49:42;;;;;;;20.55;14.68;;;;;;;19.48;100.00;99757.03;12222454;19;20017;-82
2023/05/09 07:53:44;;;;;;;22.35;14.05;;;;;;;19.47;100.00;99759.00;12225647;19;20011;-80
2023/05/09 07:57:46;;;;;;;20.40;14.40;;;;;;;19.49;100.00;99762.34;12203337;19;20006;-82
2023/05/09 08:01:48;;;;;;;17.35;12.73;;;;;;;19.56;100.00;99759.94;12225667;19;20007;-82
2023/05/09 08:05:57;;;;;;;20.90;14.37;;;;;;;19.64;100.00;99746.41;12221716;19;20014;-82
2023/05/09 08:10:00;;;;;;;20.05;14.68;;;;;;;19.57;100.00;99746.78;12202656;19;20010;-84
2023/05/09 08:14:02;;;;;;;23.13;14.75;;;;;;;19.48;100.00;99738.34;12224221;19;20029;-83
2023/05/09 08:18:05;;;;;;;21.37;14.70;;;;;;;19.44;100.00;99745.66;12231047;19;20078;-83
2023/05/09 08:22:06;;;;;;;22.10;14.77;;;;;;;19.40;100.00;99744.63;12205858;19;20045;-83
2023/05/09 08:26:08;;;;;;;22.43;15.83;;;;;;;19.40;100.00;99727.88;12228108;19;20010;-83
2023/05/09 08:30:11;;;;;;;25.35;15.52;;;;;;;19.47;100.00;99719.06;12226036;19;20510;-83
2023/05/09 08:34:13;;;;;;;23.90;14.80;;;;;;;19.65;100.00;99718.16;12196316;19;20006;-83
2023/05/09 08:38:14;;;;;;;25.07;14.80;;;;;;;19.76;100.00;99705.59;12220133;19;20078;-83
2023/05/09 08:42:19;;;;;;;25.85;16.35;;;;;;;20.09;100.00;99699.81;12216420;19;20014;-82
2023/05/09 08:46:32;;;;;;;25.75;14.82;;;;;;;20.38;100.00;99698.56;12198644;19;20018;-84
2023/05/09 08:50:34;;;;;;;20.45;14.93;;;;;;;20.44;100.00;99700.94;12220457;19;20011;-83
2023/05/09 08:54:37;;;;;;;20.30;14.75;;;;;;;20.47;100.00;99699.47;12200089;19;20007;-84
2023/05/09 08:58:39;;;;;;;21.58;13.75;;;;;;;20.67;100.00;99693.38;12221059;19;20471;-82
2023/05/09 09:02:43;;;;;;;24.48;14.48;;;;;;;20.79;99.16;99690.00;12218389;19;20034;-84
2023/05/09 09:06:45;;;;;;;21.63;14.00;;;;;;;20.55;99.72;99689.50;12194963;19;20051;-83
2023/05/09 09:10:47;;;;;;;21.00;14.88;;;;;;;20.34;100.00;99678.78;12221475;19;20002;-84
2023/05/09 09:14:52;;;;;;;19.93;14.53;;;;;;;20.53;100.00;99678.63;12224001;19;20007;-84
2023/05/09 09:18:57;;;;;;;19.45;13.65;;;;;;;20.89;98.70;99664.50;12201959;19;20228;-83
2023/05/09 09:23:03;;;;;;;16.80;12.73;;;;;;;21.07;97.63;99670.19;12222593;19;20006;-83
2023/05/09 09:27:05;;;;;;;18.80;13.07;;;;;;;20.89;96.60;99660.88;12221530;19;20106;-85
2023/05/09 09:31:27;;;;;;;17.70;12.80;;;;;;;20.53;98.52;99653.44;12203916;19;20535;-84
2023/05/09 09:35:37;;;;;;;19.58;12.55;;;;;;;20.21;100.00;99649.72;12234879;19;20014;-83
2023/05/09 09:39:52;;;;;;;17.85;12.55;;;;;;;20.18;100.00;99643.94;12234879;19;20037;-84
2023/05/09 09:43:55;;;;;;;20.27;14.25;;;;;;;20.54;100.00;99638.28;12232043;19;20010;-84
2023/05/09 09:48:05;;;;;;;21.42;15.40;;;;;;;21.01;98.91;99637.84;12228582;19;20032;-84
2023/05/09 09:52:07;;;;;;;24.33;13.98;;;;;;;21.31;98.76;99622.94;12204705;19;20010;-85
2023/05/09 09:56:09;;;;;;;20.03;14.23;;;;;;;21.46;95.20;99620.88;12222377;19;20014;-83
2023/05/09 10:00:13;;;;;;;;;;;;;;;21.54;96.03;99612.47;12220842;19;20006;-83
2023/05/09 10:04:15;;;;;;;20.27;14.07;;;;;;;21.67;92.59;99613.47;12203733;19;19915;-83
2023/05/09 10:08:25;;;;;;;21.65;13.80;;;;;;;21.69;93.23;99601.94;12224233;19;20018;-83
2023/05/09 10:12:33;;;;;;;20.02;13.63;;;;;;;22.00;92.32;99596.13;12196852;19;20011;-83
2023/05/09 10:16:38;;;;;;;17.73;12.65;;;;;;;22.17;88.40;99593.34;12218270;19;20017;-80
2023/05/09 10:20:46;;;;;;;12.30;9.68;;;;;;;22.19;86.85;99591.03;12231195;19;20015;-83
2023/05/09 10:25:01;;;;;;;13.10;10.20;;;;;;;22.24;85.45;99571.19;12209608;19;20010;-84
2023/05/09 10:29:09;;;;;;;13.32;10.35;;;;;;;22.35;83.95;99568.06;12231918;19;20082;-84
2023/05/09 10:33:15;;;;;;;12.65;10.27;;;;;;;22.50;82.74;99553.47;12230818;19;20496;-83
2023/05/09 10:37:17;;;;;;;12.98;9.88;;;;;;;22.79;83.31;99552.69;12205654;19;20030;-84
2023/05/09 10:41:20;;;;;;;14.85;9.75;;;;;;;22.97;78.63;99550.66;12235199;19;20470;-84
2023/05/09 10:45:22;;;;;;;13.20;9.55;;;;;;;23.11;75.31;99542.81;12210322;19;20023;-84
2023/05/09 10:49:25;;;;;;;12.85;9.90;;;;;;;23.15;75.32;99538.13;12230906;19;20011;-83
2023/05/09 10:53:43;;;;;;;10.65;8.20;;;;;;;23.41;72.88;99520.28;12232122;19;20372;-84
2023/05/09 10:57:52;;;;;;;10.52;7.72;;;;;;;23.66;71.07;99519.22;12212077;19;20003;-83
2023/05/09 11:01:59;;;;;;;9.10;7.70;;;;;;;23.74;70.30;99511.91;12233513;19;20014;-83
2023/05/09 11:06:01;;;;;;;16.02;11.10;;;;;;;24.03;71.95;99499.66;12232876;19;20447;-83
2023/05/09 11:10:08;;;;;;;12.40;8.93;;;;;;;24.07;67.12;99492.19;12211471;19;20081;-83
2023/05/09 11:14:27;;;;;;;11.88;7.93;;;;;;;23.93;67.66;99488.88;12239525;19;20021;-83
2023/05/09 11:18:32;;;;;;;15.65;7.93;;;;;;;23.90;69.58;99481.13;12218159;19;20053;-84
2023/05/09 11:22:38;;;;;;;9.95;7.55;;;;;;;24.36;68.03;99470.66;12236837;19;20063;-83
2023/05/09 11:26:46;;;;;;;7.97;6.90;;;;;;;24.94;62.38;99468.56;12237167;19;20720;-84
2023/05/09 11:30:50;;;;;;;8.48;6.93;;;;;;;24.74;62.99;99452.59;12214062;19;20014;-83
2023/05/09 11:35:06;;;;;;;8.80;6.50;;;;;;;24.31;63.10;99451.19;12227259;19;21608;-83
2023/05/09 11:39:09;;;;;;;7.43;5.78;;;;;;;23.83;66.83;99449.94;12234547;19;20048;-84
2023/05/09 11:43:11;;;;;;;7.22;6.03;;;;;;;23.25;67.73;99444.16;12212536;19;20014;-83
2023/05/09 11:47:15;;;;;;;8.35;6.30;;;;;;;22.86;70.40;99440.59;12248629;19;20022;-82
2023/05/09 11:51:18;;;;;;;8.60;6.20;;;;;;;22.59;69.84;99441.94;12237706;19;20479;-82
2023/05/09 11:55:21;;;;;;;8.57;5.72;;;;;;;22.58;69.34;99434.69;12217427;19;20510;-82
2023/05/09 11:59:27;;;;;;;6.80;5.35;;;;;;;22.63;71.39;99428.84;12229254;19;20047;-83
2023/05/09 12:03:28;;;;;;;7.50;5.70;;;;;;;22.68;71.75;99420.25;12212361;19;20038;-82
2023/05/09 12:07:30;;;;;;;7.07;5.75;;;;;;;22.82;69.92;99413.56;12230083;19;20116;-83
2023/05/09 12:11:33;;;;;;;6.78;5.35;;;;;;;22.77;68.84;99408.13;12234079;19;20097;-82
2023/05/09 12:15:36;;;;;;;5.97;4.95;;;;;;;22.69;70.06;99402.22;12210099;19;20044;-81
2023/05/09 12:19:38;;;;;;;6.82;4.53;;;;;;;23.11;69.79;99401.44;12205209;19;20014;-82
2023/05/09 12:23:40;;;;;;;7.80;5.00;;;;;;;24.15;65.86;99394.72;12162632;19;20046;-82
2023/05/09 12:27:44;;;;;;;7.60;4.68;;;;;;;24.50;64.28;99381.03;12203914;19;20244;-82
2023/05/09 12:31:46;;;;;;;5.15;4.20;;;;;;;24.37;63.25;99375.75;12231615;19;20072;-82
2023/05/09 12:36:07;;;;;;;6.32;4.90;;;;;;;24.22;64.75;99361.19;12226395;19;20015;-82
2023/05/09 12:40:14;;;;;;;5.53;3.30;;;;;;;23.96;63.19;99355.91;12178379;19;20034;-83
2023/05/09 12:44:21;;;;;;;5.72;4.05;;;;;;;24.00;64.08;99348.41;12161342;19;20015;-83
2023/05/09 12:48:24;;;;;;;5.03;4.05;;;;;;;24.35;63.00;99331.03;12200386;19;20014;-83
2023/05/09 12:52:33;;;;;;;5.78;4.28;;;;;;;24.77;62.81;99325.09;12187319;19;20011;-83
2023/05/09 12:56:35;;;;;;;5.63;4.15;;;;;;;25.19;58.50;99319.09;12219197;19;20032;-83
2023/05/09 13:00:43;;;;;;;6.65;3.95;;;;;;;25.18;58.62;99321.09;12208112;19;20006;-82
2023/05/09 13:04:45;;;;;;;4.43;3.58;;;;;;;25.17;58.25;99311.03;12225372;19;20014;-82
2023/05/09 13:08:56;;;;;;;;;;;;;;;25.31;58.34;99304.94;12228462;19;20082;-83
2023/05/09 13:12:58;;;;;;;5.72;3.42;;;;;;;25.33;56.71;99302.59;12180190;19;19911;-83
2023/05/09 13:17:00;;;;;;;4.10;3.55;;;;;;;25.24;56.72;99293.47;12175515;19;20136;-82
2023/05/09 13:21:02;;;;;;;5.75;3.88;;;;;;;25.30;57.17;99283.56;12202196;19;20002;-81
2023/05/09 13:25:04;;;;;;;5.78;4.00;;;;;;;26.01;57.08;99275.34;12202084;19;20105;-82
2023/05/09 13:29:07;;;;;;;4.47;3.40;;;;;;;26.66;55.44;99266.34;12224725;19;20013;-83
2023/05/09 13:33:08;;;;;;;6.80;3.67;;;;;;;26.87;52.69;99263.16;12222649;19;20028;-82
2023/05/09 13:37:28;;;;;;;6.38;4.03;;;;;;;26.51;53.16;99254.72;12206382;19;20042;-82
2023/05/09 13:41:35;;;;;;;7.57;3.72;;;;;;;25.80;56.20;99253.84;12202168;19;20761;-82
2023/05/09 13:45:38;;;;;;;7.18;4.13;;;;;;;25.34;56.88;99247.81;12199757;19;20459;-82
2023/05/09 13:49:40;;;;;;;6.15;4.32;;;;;;;25.13;58.30;99241.56;12230284;19;20035;-82
2023/05/09 13:53:42;;;;;;;8.63;5.18;;;;;;;25.19;58.26;99234.53;12240332;19;20471;-82
2023/05/09 13:57:45;;;;;;;10.25;4.10;;;;;;;25.29;58.13;99227.56;12221777;19;20018;-82
2023/05/09 14:01:47;;;;;;;7.30;4.43;;;;;;;25.35;57.47;99221.28;12239421;19;20015;-82
2023/05/09 14:05:49;;;;;;;8.27;4.72;;;;;;;25.35;56.89;99214.81;12236564;19;20003;-82
2023/05/09 14:09:54;;;;;;;6.78;4.25;;;;;;;25.32;57.39;99212.72;12211374;19;20015;-83
2023/05/09 14:14:11;;;;;;;6.55;5.32;;;;;;;25.49;56.67;99205.88;12239209;19;20006;-83
2023/05/09 14:18:16;;;;;;;9.13;5.40;;;;;;;25.82;57.25;99192.25;12240549;19;20009;-82
2023/05/09 14:22:21;;;;;;;6.90;4.68;;;;;;;25.41;58.37;99197.25;12191347;19;20013;-83
2023/05/09 14:26:25;;;;;;;8.38;4.93;;;;;;;24.60;59.52;99182.56;12236564;19;19998;-83
2023/05/09 14:30:27;;;;;;;7.45;5.00;;;;;;;23.86;62.90;99185.56;12223841;19;20071;-83
2023/05/09 14:34:33;;;;;;;7.50;6.47;;;;;;;23.06;69.11;99190.91;12207985;19;20439;-83
2023/05/09 14:38:35;;;;;;;13.25;6.40;;;;;;;22.33;75.52;99197.06;12225545;19;20010;-80
2023/05/09 14:42:37;;;;;;;9.88;6.35;;;;;;;21.80;80.22;99190.97;12203294;19;20343;-80
2023/05/09 14:46:39;;;;;;;9.50;6.07;;;;;;;21.51;87.45;99177.81;12232730;19;20018;-80
2023/05/09 14:50:40;;;;;;;11.03;7.20;;;;;;;21.33;92.31;99175.06;12228778;19;20070;-80
2023/05/09 14:54:44;;;;;;;9.25;6.80;;;;;;;21.14;98.57;99167.03;12203603;19;20014;-81
2023/05/09 14:58:46;;;;;;;10.67;7.00;;;;;;;20.93;100.00;99164.16;12229770;19;20014;-81
2023/05/09 15:02:48;;;;;;;9.88;7.00;;;;;;;20.91;100.00;99154.44;12231308;19;20275;-80
2023/05/09 15:06:51;;;;;;;10.15;7.22;;;;;;;21.15;100.00;99146.31;12215993;19;20014;-79
2023/05/09 15:10:53;;;;;;;13.53;9.07;;;;;;;21.37;100.00;99139.63;12235052;19;20491;-80
2023/05/09 15:15:10;;;;;;;12.57;7.97;;;;;;;21.60;100.00;99139.31;12229052;19;20014;-79
2023/05/09 15:19:12;;;;;;;12.00;8.35;;;;;;;21.67;100.00;99130.38;12208604;19;20025;-80
2023/05/09 15:23:13;;;;;;;15.00;13.00;;;;;;;21.56;100.00;99132.75;12231352;19;20360;-80
2023/05/09 15:27:15;;;;;;;14.43;12.63;;;;;;;21.29;100.00;99125.63;12225046;19;20376;-80
2023/05/09 15:31:20;;;;;;;11.67;9.37;;;;;;;21.15;100.00;99121.09;12203144;19;20014;-79
2023/05/09 15:35:22;;;;;;;10.55;9.48;;;;;;;21.20;100.00;99116.44;12225409;19;19998;-79
2023/05/09 15:39:24;;;;;;;9.47;7.50;;;;;;;21.16;100.00;99100.31;12198106;19;20010;-79
2023/05/09 15:43:26;;;;;;;12.35;7.18;;;;;;;21.19;100.00;99103.59;12216190;19;20283;-80
2023/05/09 15:47:28;;;;;;;13.10;7.93;;;;;;;21.20;100.00;99088.41;12214415;19;20495;-80
2023/05/09 15:51:30;;;;;;;10.40;7.60;;;;;;;21.09;100.00;99086.03;12198585;19;20026;-79
2023/05/09 15:55:34;;;;;;;9.90;7.40;;;;;;;20.94;100.00;99081.81;12220099;19;20511;-80
2023/05/09 15:59:36;;;;;;;12.03;7.60;;;;;;;20.78;100.00;99083.50;12222060;19;20471;-79
2023/05/09 16:03:37;;;;;;;9.35;7.13;;;;;;;20.63;100.00;99081.25;12201050;19;20031;-79
2023/05/09 16:07:43;;;;;;;10.95;7.57;;;;;;;20.50;100.00;99077.50;12224304;19;20047;-79
2023/05/09 16:11:46;;;;;;;9.75;6.97;;;;;;;20.34;100.00;99068.78;12216138;19;20102;-79
2023/05/09 16:15:49;;;;;;;12.00;7.75;;;;;;;20.14;100.00;99066.72;12200782;19;20010;-79
2023/05/09 16:19:51;;;;;;;12.07;8.55;;;;;;;19.93;100.00;99066.56;12219618;19;20364;-79
2023/05/09 16:23:56;;;;;;;10.90;8.37;;;;;;;19.71;100.00;99062.78;12214641;19;20094;-80
2023/05/09 16:27:58;;;;;;;15.10;9.07;;;;;;;19.52;100.00;99060.28;12195154;19;20902;-81
2023/05/09 16:32:00;;;;;;;13.50;9.13;;;;;;;19.37;100.00;99063.56;12214850;19;20007;-81
2023/05/09 16:36:02;;;;;;;16.20;10.87;;;;;;;19.28;100.00;99059.94;12213497;19;20027;-80
2023/05/09 16:40:04;;;;;;;15.57;10.63;;;;;;;19.25;100.00;99063.38;12188380;19;20275;-81
2023/05/09 16:44:06;;;;;;;14.15;9.65;;;;;;;19.22;100.00;99050.88;12210698;19;20379;-80
2023/05/09 16:48:08;;;;;;;15.07;10.47;;;;;;;19.20;100.00;99042.00;12213359;19;20435;-80
2023/05/09 16:52:12;;;;;;;16.23;11.80;;;;;;;19.22;100.00;99031.34;12188269;19;20017;-79
2023/05/09 16:56:13;;;;;;;16.23;10.52;;;;;;;19.21;100.00;99034.44;12210567;19;19998;-80
2023/05/09 17:00:16;;;;;;;16.13;10.75;;;;;;;19.22;100.00;99033.31;12214594;19;20015;-80
2023/05/09 17:04:18;;;;;;;14.10;10.13;;;;;;;19.25;100.00;99035.44;12191602;19;20495;-80
2023/05/09 17:08:22;;;;;;;14.75;9.38;;;;;;;19.24;100.00;99025.41;12215052;19;20002;-81
2023/05/09 17:12:26;;;;;;;17.87;11.50;;;;;;;19.13;100.00;99031.31;12198861;19;20014;-81
2023/05/09 17:16:28;;;;;;;14.20;10.57;;;;;;;18.98;100.00;99034.56;12214621;19;20025;-81
2023/05/09 17:20:30;;;;;;;17.77;11.77;;;;;;;18.76;100.00;99034.66;12215354;19;20082;-79
2023/05/09 17:24:34;;;;;;;13.27;8.27;;;;;;;18.54;100.00;99030.78;12193922;19;20002;-78
2023/05/09 17:28:36;;;;;;;11.27;7.57;;;;;;;18.27;100.00;99017.03;12212041;19;20034;-81
2023/05/09 17:32:38;;;;;;;13.77;7.50;;;;;;;17.99;100.00;99019.97;12214457;19;20010;-81
2023/05/09 17:36:39;;;;;;;8.47;6.40;;;;;;;17.78;100.00;99016.88;12194422;19;20020;-80
2023/05/09 17:40:42;;;;;;;12.07;7.60;;;;;;;17.61;100.00;99016.72;12234322;19;20011;-81
2023/05/09 17:44:46;;;;;;;8.85;6.55;;;;;;;17.38;100.00;99055.69;12227892;19;20012;-81
2023/05/09 17:48:48;;;;;;;16.02;8.02;;;;;;;17.18;100.00;99056.16;12199199;19;20010;-83
2023/05/09 17:52:54;;;;;;;31.42;12.10;;;;;;;16.96;100.00;99020.72;12231046;19;20062;-85
2023/05/09 17:57:17;;;;;;;17.40;9.77;;;;;;;16.75;100.00;99029.47;12221261;19;20020;-86
2023/05/09 18:01:19;;;;;;;19.90;11.52;;;;;;;16.60;100.00;99021.44;12190192;19;20003;-87
2023/05/09 18:05:22;;;;;;;20.30;11.02;;;;;;;16.57;100.00;99020.09;12212783;19;20010;-87
2023/05/09 18:09:26;;;;;;;21.58;10.65;;;;;;;16.54;100.00;99025.47;12186799;19;20471;-86
2023/05/09 18:13:28;;;;;;;16.15;10.32;;;;;;;16.51;100.00;99017.72;12211889;19;20015;-84
2023/05/09 18:17:30;;;;;;;20.65;9.75;;;;;;;16.46;100.00;99017.84;12209494;19;20078;-85
2023/05/09 18:21:33;;;;;;;16.13;9.65;;;;;;;16.38;100.00;99020.19;12188398;19;20014;-84
2023/05/09 18:26:03;;;;;;;17.55;10.25;;;;;;;16.34;100.00;99023.91;12213185;19;20015;-87
2023/05/09 18:30:09;;;;;;;17.17;10.85;;;;;;;16.21;100.00;99027.47;12210452;19;20010;-84